Aérodrome :
LOGIN :

S'inscrire | Disclaimer

   EN    FR    IT 

 










Légende :    VFR   VFR Marginal   IFR   IFR Intensif   IFR Très Intensif
Visi : 
Plafond : 
>= 8 km
>= 3000ft
5 à 8 km
1000 à 3000 ft
1500m à 5 km
500 à 1000 ft
800 à 1500m
200 à 500 ft
< 800m
< 200 ft
Symboles :   Orages  Brouillard  Fortes neiges  Fortes précipitations  Vent > 20 kt
SIGMETs :   Divers  Orages  Givrage  Turbulence  Onde Orograph.  Cendres Volcan.






- Altitude de l'aérodrome : 741 ft
- Code IATA : PED


LKPD - Pardubice AB

DERNIER METAR :
  • 062100Z 27006KT CAVOK 16/08 Q1016

METARs EXPIRÉS :
  • 062030Z 27004KT CAVOK 17/07 Q1016 NOSIG
  • 062000Z 22005KT CAVOK 17/08 Q1015 NOSIG RMK BLU BLU
  • 061930Z 31004KT CAVOK 19/07 Q1014 NOSIG RMK BLU BLU
  • 061900Z 31006KT CAVOK 19/06 Q1014 NOSIG RMK BLU BLU
  • 061830Z 31007KT 280V350 CAVOK 20/06 Q1013 NOSIG RMK BLU BLU

TAF TAF LKPD
Valide du 06 à 18h jusqu'au 07 à 18h UTC


061700Z 0618/0718 30010KT CAVOK
TEMPO 0618/0621 31014G24KT
BECMG 0705/0707 BKN030
TEMPO 0705/0712 30017KT
BECMG 0711/0713 CAVOK
BECMG 0714/0716 21005KT



MET'MAP, la Météo Aéronautique d'un coup d'oeil ! - Copyright ORBIFLY Décembre 2007 - Disclaimer

ORBIFLY MET'MAP TEAM :

Programmation & Développement : Alexandra Zaïnal
Sur une idée originale de : Baudouin d'Aumeries
Assistance à la programmation : Marc-Olivier Méhu
Soutien technique & logistique : Manuel Goepfert

Contact : metmap@orbifly.com




SOURCES & CREDITS :

   NOAA